Terminal Aerodrome Forecast
Issued by NWS

Home | Current Version | Previous Version | Text Only | Print | Product List | Glossary On
Versions: 1 2 3 4 5 6 7 8 9 10 11 12 13 14 15 16 17
000
FTUS43 KGRR 041100
TAFJXN
TAF
KJXN 041124Z 0412/0512 17006KT P6SM FEW070 BKN090 OVC100
     FM041500 24009KT P6SM OVC035
     FM041800 27007KT P6SM BKN050
     FM042300 VRB04KT P6SM BKN250
     FM050600 04003KT 4SM -RA BR OVC050
     FM050900 05003KT 2SM -RA BR OVC015=

USA.gov is the U.S. government's official web portal to all federal, state and local government web resources and services.